Mr Thomas — WDD7163 — position and weather

sailwx.info

Track history (hours):
 
Tides and Currents Weather Stations Pressure Air Temp Water Temp Dewpoint Dewpoint Depression Visibility Wind Speed Wind Dir Waves Ship Positions

Mr Thomas

Owner: CENTRAL BOAT RENTALS, BERWICK, LA. More information available from US FCC via Universal Licensing System and Coast Guard Vessel Documentation Center.

Last reported at 2015-Jan-29 15:33 UTC. Time now 2015-Jan-29 16:22 UTC.
Position N 29°39' W 091°12'.

Length 21 m.

Type: Tug. MMSI: 367182730.

Date/timePositionNaut miles runAvg speedWind from/ knotsBaromVisibWave heightAir tempDewpointWater temp
2015-Jan-29 15:33N 29°39' W 091°12'0 0.1
2015-Jan-29 14:33N 29°39' W 091°12'0 0.0
2015-Jan-29 13:33N 29°39' W 091°12'0 0.0
2015-Jan-29 12:32N 29°39' W 091°12'0 0.0
2015-Jan-29 11:32N 29°39' W 091°12'0 0.0
2015-Jan-29 10:32N 29°39' W 091°12'0 0.0
2015-Jan-29 09:32N 29°39' W 091°12'0 0.0
2015-Jan-29 08:32N 29°39' W 091°12'0 0.0
2015-Jan-29 07:32N 29°39' W 091°12'0 0.0
2015-Jan-29 06:32N 29°39' W 091°12'0 0.0
2015-Jan-29 05:32N 29°39' W 091°12'0 0.0
2015-Jan-29 04:32N 29°39' W 091°12'0 0.0
2015-Jan-29 03:32N 29°39' W 091°12'0 0.0
2015-Jan-29 02:32N 29°39' W 091°12'0 0.0
2015-Jan-29 01:32N 29°39' W 091°12'2 1.7
2015-Jan-29 00:31N 29°41' W 091°13'0 0.0
2015-Jan-28 23:31N 29°41' W 091°13'0 0.0
2015-Jan-28 22:31N 29°41' W 091°13'3 2.9
2015-Jan-28 21:33N 29°41' W 091°10'1 0.6
2015-Jan-28 20:31N 29°41' W 091°10'1 1.5
2015-Jan-28 19:33N 29°41' W 091°11'2 1.8
2015-Jan-28 18:31N 29°41' W 091°13'0 0.0
2015-Jan-28 17:31N 29°41' W 091°13'0 0.0
2015-Jan-28 16:31N 29°41' W 091°13'0 0.0
2015-Jan-28 15:31N 29°41' W 091°13'0 0.0
2015-Jan-28 14:31N 29°41' W 091°13'0 0.0
2015-Jan-28 13:31N 29°41' W 091°13'0 0.0
2015-Jan-28 12:31N 29°41' W 091°13'0 0.0
2015-Jan-28 11:31N 29°41' W 091°13'0 0.0
2015-Jan-28 10:31N 29°41' W 091°13'0 0.0
2015-Jan-28 09:31N 29°41' W 091°13'0 0.0
2015-Jan-28 08:31N 29°41' W 091°13'0 0.0
2015-Jan-28 07:31N 29°41' W 091°13'0 0.0
2015-Jan-28 06:31N 29°41' W 091°13'0 0.0
2015-Jan-28 05:31N 29°41' W 091°13'0 0.0
2015-Jan-28 04:31N 29°41' W 091°13'0 0.0
2015-Jan-28 03:31N 29°41' W 091°13'0 0.0
2015-Jan-28 02:28N 29°41' W 091°13'0 0.0
2015-Jan-28 01:31N 29°41' W 091°13'0 0.0
2015-Jan-28 00:31N 29°41' W 091°13'0 0.0
2015-Jan-27 23:31N 29°41' W 091°13'0 0.0
2015-Jan-27 22:31N 29°41' W 091°13'0 0.0
2015-Jan-27 21:31N 29°41' W 091°13'0 0.0
2015-Jan-27 20:31N 29°41' W 091°13'0 0.0
2015-Jan-27 19:33N 29°41' W 091°13'0 0.0
2015-Jan-27 18:33N 29°41' W 091°13'0 0.0
2015-Jan-27 17:33N 29°41' W 091°13'0 0.0
2015-Jan-27 16:32N 29°41' W 091°13'0 0.0
2015-Jan-27 15:32N 29°41' W 091°13'0 0.0
2015-Jan-27 14:32N 29°41' W 091°13'0 0.0
2015-Jan-27 13:32N 29°41' W 091°13'0 0.0
2015-Jan-27 12:32N 29°41' W 091°13'0 0.0
2015-Jan-27 11:32N 29°41' W 091°13'0 0.0
2015-Jan-27 10:32N 29°41' W 091°13'0 0.0
2015-Jan-27 09:32N 29°41' W 091°13'0 0.0
2015-Jan-27 08:32N 29°41' W 091°13'0 0.0
2015-Jan-27 07:32N 29°41' W 091°13'0 0.0
2015-Jan-27 06:32N 29°41' W 091°13'0 0.0
2015-Jan-27 05:32N 29°41' W 091°13'0 0.0
2015-Jan-27 04:32N 29°41' W 091°13'0 0.0
2015-Jan-27 03:32N 29°41' W 091°13'0 0.0
2015-Jan-27 02:32N 29°41' W 091°13'0 0.0
2015-Jan-27 01:32N 29°41' W 091°13'0 0.0
2015-Jan-27 00:32N 29°41' W 091°13'0 0.0
2015-Jan-26 23:32N 29°41' W 091°13'0 0.0
2015-Jan-26 22:32N 29°41' W 091°13'1 1.3
2015-Jan-26 21:32N 29°42' W 091°13'0 0.2
2015-Jan-26 20:31N 29°42' W 091°13'1 1.5
2015-Jan-26 19:32N 29°41' W 091°13'1 1.1
2015-Jan-26 18:34N 29°41' W 091°13'3 2.9
2015-Jan-26 17:33N 29°39' W 091°15'7 7.3
2015-Jan-26 16:33N 29°39' W 091°24'7 7.0
2015-Jan-26 15:32N 29°32' W 091°26'5 4.7
2015-Jan-26 14:33N 29°28' W 091°24'3 0.5
2015-Jan-26 08:30N 29°26' W 091°27'0 0.0
2015-Jan-26 06:12N 29°26' W 091°27'0 0.6
2015-Jan-26 05:28N 29°26' W 091°26'3 2.8
2015-Jan-26 04:34N 29°28' W 091°24'7 6.9
2015-Jan-26 03:33N 29°35' W 091°25'7 6.9
2015-Jan-26 02:33N 29°38' W 091°19'7 7.0
2015-Jan-26 01:33N 29°41' W 091°11'0 0.0
2015-Jan-26 00:31N 29°41' W 091°11'6 6.1
2015-Jan-25 23:34N 29°39' W 091°17'6 6.1
2015-Jan-25 22:32N 29°37' W 091°24'4 2.1
2015-Jan-25 20:26N 29°33' W 091°26'3 2.8
2015-Jan-25 19:26N 29°30' W 091°25'4 3.9
2015-Jan-25 18:31N 29°26' W 091°25'2 1.4
2015-Jan-25 17:17N 29°27' W 091°24'5 5.4
2015-Jan-25 16:25N 29°32' W 091°26'7 7.3
2015-Jan-25 15:32N 29°38' W 091°24'4 3.9
2015-Jan-25 14:33N 29°40' W 091°27'4 4.4
2015-Jan-25 13:33N 29°42' W 091°32'3 3.1
2015-Jan-25 12:28N 29°45' W 091°35'9 4.4
2015-Jan-25 10:30N 29°46' W 091°45'19 1.1
2015-Jan-24 17:15N 29°39' W 091°24'5 7.2
2015-Jan-24 16:32N 29°39' W 091°18'4 4.6
2015-Jan-24 15:34N 29°41' W 091°13'0 0.1
2015-Jan-24 14:32N 29°41' W 091°13'2 2.0
2015-Jan-24 13:31N 29°39' W 091°12'0 0.0
2015-Jan-24 12:31N 29°39' W 091°12'0 0.0
2015-Jan-24 11:31N 29°39' W 091°12'0 0.0
2015-Jan-24 10:31N 29°39' W 091°12'0 0.0
2015-Jan-24 09:31N 29°39' W 091°12'0 0.0
2015-Jan-24 08:31N 29°39' W 091°12'0 0.0
2015-Jan-24 07:31N 29°39' W 091°12'0 0.0
2015-Jan-24 06:31N 29°39' W 091°12'0 0.0
2015-Jan-24 05:31N 29°39' W 091°12'0 0.0
2015-Jan-24 04:31N 29°39' W 091°12'0 0.0
2015-Jan-24 03:31N 29°39' W 091°12'0 0.0
2015-Jan-24 02:31N 29°39' W 091°12'0 0.0
2015-Jan-24 01:31N 29°39' W 091°12'0 0.0
2015-Jan-24 00:31N 29°39' W 091°12'0 0.0
2015-Jan-23 23:31N 29°39' W 091°12'0 0.0
2015-Jan-23 22:31N 29°39' W 091°12'0 0.0
2015-Jan-23 21:28N 29°39' W 091°12'0 0.0
2015-Jan-23 20:31N 29°39' W 091°12'1 1.2
2015-Jan-23 19:33N 29°40' W 091°12'1 1.4
2015-Jan-23 18:33N 29°40' W 091°14'3 3.2
2015-Jan-23 17:33N 29°39' W 091°17'3 3.4
2015-Jan-23 16:33N 29°38' W 091°21'3 3.3
2015-Jan-23 15:33N 29°39' W 091°25'3 3.4
2015-Jan-23 14:33N 29°41' W 091°28'2 2.3
2015-Jan-23 13:32N 29°42' W 091°31'1 1.0
2015-Jan-23 12:32N 29°42' W 091°32'0 0.0
2015-Jan-23 11:32N 29°42' W 091°32'0 0.0
2015-Jan-23 10:29N 29°42' W 091°32'0 0.0
2015-Jan-23 09:32N 29°42' W 091°32'0 0.0
2015-Jan-23 08:20N 29°42' W 091°32'0 0.0
2015-Jan-23 07:08N 29°42' W 091°32'0 0.0
2015-Jan-23 06:23N 29°42' W 091°32'0 0.0
2015-Jan-23 04:05N 29°42' W 091°32'0 0.0
2015-Jan-23 03:05N 29°42' W 091°32'0 0.0
2015-Jan-23 02:23N 29°42' W 091°32'0 0.0
2015-Jan-23 01:26N 29°42' W 091°32'0 0.0
2015-Jan-23 00:32N 29°42' W 091°32'0 0.2
2015-Jan-22 23:32N 29°42' W 091°32'3 3.2
2015-Jan-22 22:32N 29°44' W 091°34'0 0.0
2015-Jan-22 00:08N 29°44' W 091°34'6 9.6
2015-Jan-21 23:31N 29°41' W 091°28'6 8.9
2015-Jan-21 22:50N 29°39' W 091°22'1 8.6
2015-Jan-21 22:46N 29°39' W 091°21'2 8.8
2015-Jan-21 22:33N 29°38' W 091°19'5 5.2
2015-Jan-21 21:31N 29°41' W 091°13'1 1.1
2015-Jan-21 20:32N 29°41' W 091°13'0 0.0
2015-Jan-21 19:32N 29°41' W 091°13'0 0.0
2015-Jan-21 18:32N 29°41' W 091°13'0 0.0
2015-Jan-21 17:32N 29°41' W 091°13'0 0.0
2015-Jan-21 16:32N 29°41' W 091°13'0 0.0
2015-Jan-21 15:32N 29°41' W 091°13'1 1.1
2015-Jan-21 14:33N 29°41' W 091°13'1 1.1
2015-Jan-21 13:33N 29°41' W 091°13'0 0.0
2015-Jan-21 12:33N 29°41' W 091°13'0 0.0
2015-Jan-21 11:33N 29°41' W 091°13'0 0.0
2015-Jan-21 10:33N 29°41' W 091°13'0 0.0
2015-Jan-21 09:33N 29°41' W 091°13'0 0.0
2015-Jan-21 08:33N 29°41' W 091°13'0 0.0
2015-Jan-21 07:33N 29°41' W 091°13'0 0.0
2015-Jan-21 06:33N 29°41' W 091°13'0 0.0
2015-Jan-21 05:33N 29°41' W 091°13'0 0.0
2015-Jan-21 04:33N 29°41' W 091°13'0 0.0
2015-Jan-21 03:33N 29°41' W 091°13'0 0.0
2015-Jan-21 02:33N 29°41' W 091°13'0 0.0
2015-Jan-21 01:33N 29°41' W 091°13'0 0.0
2015-Jan-21 00:33N 29°41' W 091°13'0 0.0
2015-Jan-20 23:33N 29°41' W 091°13'0 0.0
2015-Jan-20 22:33N 29°41' W 091°13'0 0.0
2015-Jan-20 21:33N 29°41' W 091°13'0 0.0
2015-Jan-20 20:33N 29°41' W 091°13'0 0.0
2015-Jan-20 19:33N 29°41' W 091°13'0 0.0
2015-Jan-20 18:33N 29°41' W 091°13'0 0.0
2015-Jan-20 17:33N 29°41' W 091°13'1 1.1
2015-Jan-20 16:33N 29°41' W 091°13'0 0.0
2015-Jan-20 15:33N 29°41' W 091°13'0 0.0
2015-Jan-20 14:33N 29°41' W 091°13'0 0.0
2015-Jan-20 13:33N 29°41' W 091°13'0 0.0
2015-Jan-20 12:32N 29°41' W 091°13'0 0.0
2015-Jan-20 11:33N 29°41' W 091°13'0 0.0
2015-Jan-20 10:32N 29°41' W 091°13'0 0.0
2015-Jan-20 09:32N 29°41' W 091°13'0 0.0
2015-Jan-20 08:32N 29°41' W 091°13'0 0.0
2015-Jan-20 07:32N 29°41' W 091°13'0 0.0
2015-Jan-20 06:32N 29°41' W 091°13'0 0.0
2015-Jan-20 05:32N 29°41' W 091°13'0 0.0
2015-Jan-20 04:26N 29°41' W 091°13'0 0.0
2015-Jan-20 03:31N 29°41' W 091°13'0 0.0
2015-Jan-20 02:18N 29°41' W 091°13'0 0.0
2015-Jan-20 01:32N 29°41' W 091°13'0 0.0
2015-Jan-20 00:32N 29°41' W 091°13'0 0.0
2015-Jan-19 23:32N 29°41' W 091°13'0 0.0
2015-Jan-19 22:26N 29°41' W 091°13'0 0.0
2015-Jan-19 21:32N 29°41' W 091°13'0 0.0
2015-Jan-19 20:32N 29°41' W 091°13'0 0.0
2015-Jan-19 19:32N 29°41' W 091°13'0 0.0
2015-Jan-19 18:32N 29°41' W 091°13'0 0.0
2015-Jan-19 17:32N 29°41' W 091°13'0 0.0
2015-Jan-19 16:32N 29°41' W 091°13'  
Track history (hours):
 
Tides and Currents Weather Stations Pressure Air Temp Water Temp Dewpoint Dewpoint Depression Visibility Wind Speed Wind Dir Waves Ship Positions

Mr Thomas

Owner: CENTRAL BOAT RENTALS, BERWICK, LA. More information available from US FCC via Universal Licensing System and Coast Guard Vessel Documentation Center.

Last reported at 2015-Jan-29 15:33 UTC. Time now 2015-Jan-29 16:22 UTC.
Position N 29°39' W 091°12'.

Length 21 m.

Type: Tug. MMSI: 367182730.

Date/timePositionNaut miles runAvg speedWind from/ knotsBaromVisibWave heightAir tempDewpointWater temp
2015-Jan-29 15:33N 29°39' W 091°12'0 0.1
2015-Jan-29 14:33N 29°39' W 091°12'0 0.0
2015-Jan-29 13:33N 29°39' W 091°12'0 0.0
2015-Jan-29 12:32N 29°39' W 091°12'0 0.0
2015-Jan-29 11:32N 29°39' W 091°12'0 0.0
2015-Jan-29 10:32N 29°39' W 091°12'0 0.0
2015-Jan-29 09:32N 29°39' W 091°12'0 0.0
2015-Jan-29 08:32N 29°39' W 091°12'0 0.0
2015-Jan-29 07:32N 29°39' W 091°12'0 0.0
2015-Jan-29 06:32N 29°39' W 091°12'0 0.0
2015-Jan-29 05:32N 29°39' W 091°12'0 0.0
2015-Jan-29 04:32N 29°39' W 091°12'0 0.0
2015-Jan-29 03:32N 29°39' W 091°12'0 0.0
2015-Jan-29 02:32N 29°39' W 091°12'0 0.0
2015-Jan-29 01:32N 29°39' W 091°12'2 1.7
2015-Jan-29 00:31N 29°41' W 091°13'0 0.0
2015-Jan-28 23:31N 29°41' W 091°13'0 0.0
2015-Jan-28 22:31N 29°41' W 091°13'3 2.9
2015-Jan-28 21:33N 29°41' W 091°10'1 0.6
2015-Jan-28 20:31N 29°41' W 091°10'1 1.5
2015-Jan-28 19:33N 29°41' W 091°11'2 1.8
2015-Jan-28 18:31N 29°41' W 091°13'0 0.0
2015-Jan-28 17:31N 29°41' W 091°13'0 0.0
2015-Jan-28 16:31N 29°41' W 091°13'0 0.0
2015-Jan-28 15:31N 29°41' W 091°13'0 0.0
2015-Jan-28 14:31N 29°41' W 091°13'0 0.0
2015-Jan-28 13:31N 29°41' W 091°13'0 0.0
2015-Jan-28 12:31N 29°41' W 091°13'0 0.0
2015-Jan-28 11:31N 29°41' W 091°13'0 0.0
2015-Jan-28 10:31N 29°41' W 091°13'0 0.0
2015-Jan-28 09:31N 29°41' W 091°13'0 0.0
2015-Jan-28 08:31N 29°41' W 091°13'0 0.0
2015-Jan-28 07:31N 29°41' W 091°13'0 0.0
2015-Jan-28 06:31N 29°41' W 091°13'0 0.0
2015-Jan-28 05:31N 29°41' W 091°13'0 0.0
2015-Jan-28 04:31N 29°41' W 091°13'0 0.0
2015-Jan-28 03:31N 29°41' W 091°13'0 0.0
2015-Jan-28 02:28N 29°41' W 091°13'0 0.0
2015-Jan-28 01:31N 29°41' W 091°13'0 0.0
2015-Jan-28 00:31N 29°41' W 091°13'0 0.0
2015-Jan-27 23:31N 29°41' W 091°13'0 0.0
2015-Jan-27 22:31N 29°41' W 091°13'0 0.0
2015-Jan-27 21:31N 29°41' W 091°13'0 0.0
2015-Jan-27 20:31N 29°41' W 091°13'0 0.0
2015-Jan-27 19:33N 29°41' W 091°13'0 0.0
2015-Jan-27 18:33N 29°41' W 091°13'0 0.0
2015-Jan-27 17:33N 29°41' W 091°13'0 0.0
2015-Jan-27 16:32N 29°41' W 091°13'0 0.0
2015-Jan-27 15:32N 29°41' W 091°13'0 0.0
2015-Jan-27 14:32N 29°41' W 091°13'0 0.0
2015-Jan-27 13:32N 29°41' W 091°13'0 0.0
2015-Jan-27 12:32N 29°41' W 091°13'0 0.0
2015-Jan-27 11:32N 29°41' W 091°13'0 0.0
2015-Jan-27 10:32N 29°41' W 091°13'0 0.0
2015-Jan-27 09:32N 29°41' W 091°13'0 0.0
2015-Jan-27 08:32N 29°41' W 091°13'0 0.0
2015-Jan-27 07:32N 29°41' W 091°13'0 0.0
2015-Jan-27 06:32N 29°41' W 091°13'0 0.0
2015-Jan-27 05:32N 29°41' W 091°13'0 0.0
2015-Jan-27 04:32N 29°41' W 091°13'0 0.0
2015-Jan-27 03:32N 29°41' W 091°13'0 0.0
2015-Jan-27 02:32N 29°41' W 091°13'0 0.0
2015-Jan-27 01:32N 29°41' W 091°13'0 0.0
2015-Jan-27 00:32N 29°41' W 091°13'0 0.0
2015-Jan-26 23:32N 29°41' W 091°13'0 0.0
2015-Jan-26 22:32N 29°41' W 091°13'1 1.3
2015-Jan-26 21:32N 29°42' W 091°13'0 0.2
2015-Jan-26 20:31N 29°42' W 091°13'1 1.5
2015-Jan-26 19:32N 29°41' W 091°13'1 1.1
2015-Jan-26 18:34N 29°41' W 091°13'3 2.9
2015-Jan-26 17:33N 29°39' W 091°15'7 7.3
2015-Jan-26 16:33N 29°39' W 091°24'7 7.0
2015-Jan-26 15:32N 29°32' W 091°26'5 4.7
2015-Jan-26 14:33N 29°28' W 091°24'3 0.5
2015-Jan-26 08:30N 29°26' W 091°27'0 0.0
2015-Jan-26 06:12N 29°26' W 091°27'0 0.6
2015-Jan-26 05:28N 29°26' W 091°26'3 2.8
2015-Jan-26 04:34N 29°28' W 091°24'7 6.9
2015-Jan-26 03:33N 29°35' W 091°25'7 6.9
2015-Jan-26 02:33N 29°38' W 091°19'7 7.0
2015-Jan-26 01:33N 29°41' W 091°11'0 0.0
2015-Jan-26 00:31N 29°41' W 091°11'6 6.1
2015-Jan-25 23:34N 29°39' W 091°17'6 6.1
2015-Jan-25 22:32N 29°37' W 091°24'4 2.1
2015-Jan-25 20:26N 29°33' W 091°26'3 2.8
2015-Jan-25 19:26N 29°30' W 091°25'4 3.9
2015-Jan-25 18:31N 29°26' W 091°25'2 1.4
2015-Jan-25 17:17N 29°27' W 091°24'5 5.4
2015-Jan-25 16:25N 29°32' W 091°26'7 7.3
2015-Jan-25 15:32N 29°38' W 091°24'4 3.9
2015-Jan-25 14:33N 29°40' W 091°27'4 4.4
2015-Jan-25 13:33N 29°42' W 091°32'3 3.1
2015-Jan-25 12:28N 29°45' W 091°35'9 4.4
2015-Jan-25 10:30N 29°46' W 091°45'19 1.1
2015-Jan-24 17:15N 29°39' W 091°24'5 7.2
2015-Jan-24 16:32N 29°39' W 091°18'4 4.6
2015-Jan-24 15:34N 29°41' W 091°13'0 0.1
2015-Jan-24 14:32N 29°41' W 091°13'2 2.0
2015-Jan-24 13:31N 29°39' W 091°12'0 0.0
2015-Jan-24 12:31N 29°39' W 091°12'0 0.0
2015-Jan-24 11:31N 29°39' W 091°12'0 0.0
2015-Jan-24 10:31N 29°39' W 091°12'0 0.0
2015-Jan-24 09:31N 29°39' W 091°12'0 0.0
2015-Jan-24 08:31N 29°39' W 091°12'0 0.0
2015-Jan-24 07:31N 29°39' W 091°12'0 0.0
2015-Jan-24 06:31N 29°39' W 091°12'0 0.0
2015-Jan-24 05:31N 29°39' W 091°12'0 0.0
2015-Jan-24 04:31N 29°39' W 091°12'0 0.0
2015-Jan-24 03:31N 29°39' W 091°12'0 0.0
2015-Jan-24 02:31N 29°39' W 091°12'0 0.0
2015-Jan-24 01:31N 29°39' W 091°12'0 0.0
2015-Jan-24 00:31N 29°39' W 091°12'0 0.0
2015-Jan-23 23:31N 29°39' W 091°12'0 0.0
2015-Jan-23 22:31N 29°39' W 091°12'0 0.0
2015-Jan-23 21:28N 29°39' W 091°12'0 0.0
2015-Jan-23 20:31N 29°39' W 091°12'1 1.2
2015-Jan-23 19:33N 29°40' W 091°12'1 1.4
2015-Jan-23 18:33N 29°40' W 091°14'3 3.2
2015-Jan-23 17:33N 29°39' W 091°17'3 3.4
2015-Jan-23 16:33N 29°38' W 091°21'3 3.3
2015-Jan-23 15:33N 29°39' W 091°25'3 3.4
2015-Jan-23 14:33N 29°41' W 091°28'2 2.3
2015-Jan-23 13:32N 29°42' W 091°31'1 1.0
2015-Jan-23 12:32N 29°42' W 091°32'0 0.0
2015-Jan-23 11:32N 29°42' W 091°32'0 0.0
2015-Jan-23 10:29N 29°42' W 091°32'0 0.0
2015-Jan-23 09:32N 29°42' W 091°32'0 0.0
2015-Jan-23 08:20N 29°42' W 091°32'0 0.0
2015-Jan-23 07:08N 29°42' W 091°32'0 0.0
2015-Jan-23 06:23N 29°42' W 091°32'0 0.0
2015-Jan-23 04:05N 29°42' W 091°32'0 0.0
2015-Jan-23 03:05N 29°42' W 091°32'0 0.0
2015-Jan-23 02:23N 29°42' W 091°32'0 0.0
2015-Jan-23 01:26N 29°42' W 091°32'0 0.0
2015-Jan-23 00:32N 29°42' W 091°32'0 0.2
2015-Jan-22 23:32N 29°42' W 091°32'3 3.2
2015-Jan-22 22:32N 29°44' W 091°34'0 0.0
2015-Jan-22 00:08N 29°44' W 091°34'6 9.6
2015-Jan-21 23:31N 29°41' W 091°28'6 8.9
2015-Jan-21 22:50N 29°39' W 091°22'1 8.6
2015-Jan-21 22:46N 29°39' W 091°21'2 8.8
2015-Jan-21 22:33N 29°38' W 091°19'5 5.2
2015-Jan-21 21:31N 29°41' W 091°13'1 1.1
2015-Jan-21 20:32N 29°41' W 091°13'0 0.0
2015-Jan-21 19:32N 29°41' W 091°13'0 0.0
2015-Jan-21 18:32N 29°41' W 091°13'0 0.0
2015-Jan-21 17:32N 29°41' W 091°13'0 0.0
2015-Jan-21 16:32N 29°41' W 091°13'0 0.0
2015-Jan-21 15:32N 29°41' W 091°13'1 1.1
2015-Jan-21 14:33N 29°41' W 091°13'1 1.1
2015-Jan-21 13:33N 29°41' W 091°13'0 0.0
2015-Jan-21 12:33N 29°41' W 091°13'0 0.0
2015-Jan-21 11:33N 29°41' W 091°13'0 0.0
2015-Jan-21 10:33N 29°41' W 091°13'0 0.0
2015-Jan-21 09:33N 29°41' W 091°13'0 0.0
2015-Jan-21 08:33N 29°41' W 091°13'0 0.0
2015-Jan-21 07:33N 29°41' W 091°13'0 0.0
2015-Jan-21 06:33N 29°41' W 091°13'0 0.0
2015-Jan-21 05:33N 29°41' W 091°13'0 0.0
2015-Jan-21 04:33N 29°41' W 091°13'0 0.0
2015-Jan-21 03:33N 29°41' W 091°13'0 0.0
2015-Jan-21 02:33N 29°41' W 091°13'0 0.0
2015-Jan-21 01:33N 29°41' W 091°13'0 0.0
2015-Jan-21 00:33N 29°41' W 091°13'0 0.0
2015-Jan-20 23:33N 29°41' W 091°13'0 0.0
2015-Jan-20 22:33N 29°41' W 091°13'0 0.0
2015-Jan-20 21:33N 29°41' W 091°13'0 0.0
2015-Jan-20 20:33N 29°41' W 091°13'0 0.0
2015-Jan-20 19:33N 29°41' W 091°13'0 0.0
2015-Jan-20 18:33N 29°41' W 091°13'0 0.0
2015-Jan-20 17:33N 29°41' W 091°13'1 1.1
2015-Jan-20 16:33N 29°41' W 091°13'0 0.0
2015-Jan-20 15:33N 29°41' W 091°13'0 0.0
2015-Jan-20 14:33N 29°41' W 091°13'0 0.0
2015-Jan-20 13:33N 29°41' W 091°13'0 0.0
2015-Jan-20 12:32N 29°41' W 091°13'0 0.0
2015-Jan-20 11:33N 29°41' W 091°13'0 0.0
2015-Jan-20 10:32N 29°41' W 091°13'0 0.0
2015-Jan-20 09:32N 29°41' W 091°13'0 0.0
2015-Jan-20 08:32N 29°41' W 091°13'0 0.0
2015-Jan-20 07:32N 29°41' W 091°13'0 0.0
2015-Jan-20 06:32N 29°41' W 091°13'0 0.0
2015-Jan-20 05:32N 29°41' W 091°13'0 0.0
2015-Jan-20 04:26N 29°41' W 091°13'0 0.0
2015-Jan-20 03:31N 29°41' W 091°13'0 0.0
2015-Jan-20 02:18N 29°41' W 091°13'0 0.0
2015-Jan-20 01:32N 29°41' W 091°13'0 0.0
2015-Jan-20 00:32N 29°41' W 091°13'0 0.0
2015-Jan-19 23:32N 29°41' W 091°13'0 0.0
2015-Jan-19 22:26N 29°41' W 091°13'0 0.0
2015-Jan-19 21:32N 29°41' W 091°13'0 0.0
2015-Jan-19 20:32N 29°41' W 091°13'0 0.0
2015-Jan-19 19:32N 29°41' W 091°13'0 0.0
2015-Jan-19 18:32N 29°41' W 091°13'0 0.0
2015-Jan-19 17:32N 29°41' W 091°13'0 0.0
2015-Jan-19 16:32N 29°41' W 091°13'  

Dump ship's entire track history